sensor_id;sensor_type;location;lat;lon;timestamp;P1;durP1;ratioP1;P2;durP2;ratioP2
10467;SDS011;5281;48.878;9.394;2022-08-30T00:02:21;7.82;;;3.25;;
10467;SDS011;5281;48.878;9.394;2022-08-30T00:04:47;6.05;;;3.70;;
10467;SDS011;5281;48.878;9.394;2022-08-30T00:07:14;6.78;;;4.00;;
10467;SDS011;5281;48.878;9.394;2022-08-30T00:09:41;4.55;;;3.50;;
10467;SDS011;5281;48.878;9.394;2022-08-30T00:12:07;5.65;;;3.50;;
10467;SDS011;5281;48.878;9.394;2022-08-30T00:14:36;4.38;;;3.67;;
10467;SDS011;5281;48.878;9.394;2022-08-30T00:17:03;4.32;;;3.63;;
10467;SDS011;5281;48.878;9.394;2022-08-30T00:19:30;7.60;;;3.60;;
10467;SDS011;5281;48.878;9.394;2022-08-30T00:21:56;4.65;;;3.90;;
10467;SDS011;5281;48.878;9.394;2022-08-30T00:24:23;5.70;;;3.88;;
10467;SDS011;5281;48.878;9.394;2022-08-30T00:26:50;6.45;;;3.85;;
10467;SDS011;5281;48.878;9.394;2022-08-30T00:29:18;5.57;;;3.88;;
10467;SDS011;5281;48.878;9.394;2022-08-30T00:31:45;15.82;;;4.07;;
10467;SDS011;5281;48.878;9.394;2022-08-30T00:34:12;6.75;;;4.10;;
10467;SDS011;5281;48.878;9.394;2022-08-30T00:36:40;7.93;;;4.00;;
10467;SDS011;5281;48.878;9.394;2022-08-30T00:39:07;5.53;;;4.18;;
10467;SDS011;5281;48.878;9.394;2022-08-30T00:41:34;5.68;;;4.05;;
10467;SDS011;5281;48.878;9.394;2022-08-30T00:44:01;6.30;;;3.95;;
10467;SDS011;5281;48.878;9.394;2022-08-30T00:46:30;4.22;;;3.75;;
10467;SDS011;5281;48.878;9.394;2022-08-30T00:48:57;5.32;;;4.40;;
10467;SDS011;5281;48.878;9.394;2022-08-30T00:51:27;5.15;;;4.20;;
10467;SDS011;5281;48.878;9.394;2022-08-30T00:53:56;4.82;;;4.10;;
10467;SDS011;5281;48.878;9.394;2022-08-30T00:56:23;5.22;;;4.00;;
10467;SDS011;5281;48.878;9.394;2022-08-30T00:58:52;4.88;;;3.95;;
10467;SDS011;5281;48.878;9.394;2022-08-30T01:01:21;6.95;;;4.25;;
10467;SDS011;5281;48.878;9.394;2022-08-30T01:03:50;6.95;;;4.53;;
10467;SDS011;5281;48.878;9.394;2022-08-30T01:06:17;4.20;;;3.80;;
10467;SDS011;5281;48.878;9.394;2022-08-30T01:08:44;5.80;;;5.00;;
10467;SDS011;5281;48.878;9.394;2022-08-30T01:11:12;5.95;;;4.07;;
10467;SDS011;5281;48.878;9.394;2022-08-30T01:13:42;4.15;;;3.45;;
10467;SDS011;5281;48.878;9.394;2022-08-30T01:16:09;6.75;;;3.90;;
10467;SDS011;5281;48.878;9.394;2022-08-30T01:18:36;6.00;;;3.90;;
10467;SDS011;5281;48.878;9.394;2022-08-30T01:21:06;6.85;;;4.28;;
10467;SDS011;5281;48.878;9.394;2022-08-30T01:23:42;4.72;;;4.18;;
10467;SDS011;5281;48.878;9.394;2022-08-30T01:26:11;5.50;;;3.90;;
10467;SDS011;5281;48.878;9.394;2022-08-30T01:28:39;5.03;;;4.00;;
10467;SDS011;5281;48.878;9.394;2022-08-30T01:31:06;8.77;;;4.10;;
10467;SDS011;5281;48.878;9.394;2022-08-30T01:33:34;8.02;;;4.30;;
10467;SDS011;5281;48.878;9.394;2022-08-30T01:36:03;10.90;;;4.00;;
10467;SDS011;5281;48.878;9.394;2022-08-30T01:38:32;7.15;;;4.50;;
10467;SDS011;5281;48.878;9.394;2022-08-30T01:41:08;4.95;;;4.03;;
10467;SDS011;5281;48.878;9.394;2022-08-30T01:43:36;6.32;;;4.20;;
10467;SDS011;5281;48.878;9.394;2022-08-30T01:46:04;6.90;;;4.57;;
10467;SDS011;5281;48.878;9.394;2022-08-30T01:48:31;9.25;;;4.47;;
10467;SDS011;5281;48.878;9.394;2022-08-30T01:50:58;5.30;;;4.40;;
10467;SDS011;5281;48.878;9.394;2022-08-30T01:53:25;4.75;;;4.20;;
10467;SDS011;5281;48.878;9.394;2022-08-30T01:55:52;5.75;;;4.00;;
10467;SDS011;5281;48.878;9.394;2022-08-30T01:58:20;6.65;;;3.90;;
10467;SDS011;5281;48.878;9.394;2022-08-30T02:00:48;4.95;;;4.13;;
10467;SDS011;5281;48.878;9.394;2022-08-30T02:03:15;5.25;;;4.05;;
10467;SDS011;5281;48.878;9.394;2022-08-30T02:05:41;5.47;;;4.20;;
10467;SDS011;5281;48.878;9.394;2022-08-30T02:08:08;4.70;;;3.92;;
10467;SDS011;5281;48.878;9.394;2022-08-30T02:10:35;7.78;;;4.25;;
10467;SDS011;5281;48.878;9.394;2022-08-30T02:13:02;6.35;;;3.97;;
10467;SDS011;5281;48.878;9.394;2022-08-30T02:15:30;4.85;;;4.30;;
10467;SDS011;5281;48.878;9.394;2022-08-30T02:17:59;6.38;;;4.20;;
10467;SDS011;5281;48.878;9.394;2022-08-30T02:20:26;4.28;;;3.88;;
10467;SDS011;5281;48.878;9.394;2022-08-30T02:22:53;4.88;;;4.07;;
10467;SDS011;5281;48.878;9.394;2022-08-30T02:25:19;4.60;;;4.15;;
10467;SDS011;5281;48.878;9.394;2022-08-30T02:27:46;6.10;;;4.18;;
10467;SDS011;5281;48.878;9.394;2022-08-30T02:30:13;6.68;;;4.50;;
10467;SDS011;5281;48.878;9.394;2022-08-30T02:32:42;4.88;;;4.38;;
10467;SDS011;5281;48.878;9.394;2022-08-30T02:35:08;4.68;;;4.03;;
10467;SDS011;5281;48.878;9.394;2022-08-30T02:37:35;6.13;;;4.25;;
10467;SDS011;5281;48.878;9.394;2022-08-30T02:40:02;9.05;;;4.40;;
10467;SDS011;5281;48.878;9.394;2022-08-30T02:42:30;6.30;;;4.18;;
10467;SDS011;5281;48.878;9.394;2022-08-30T02:44:56;8.02;;;3.95;;
10467;SDS011;5281;48.878;9.394;2022-08-30T02:47:24;5.82;;;4.65;;
10467;SDS011;5281;48.878;9.394;2022-08-30T02:49:52;6.32;;;5.00;;
10467;SDS011;5281;48.878;9.394;2022-08-30T02:52:19;7.93;;;5.22;;
10467;SDS011;5281;48.878;9.394;2022-08-30T02:54:47;6.25;;;4.65;;
10467;SDS011;5281;48.878;9.394;2022-08-30T02:57:14;4.90;;;4.00;;
10467;SDS011;5281;48.878;9.394;2022-08-30T02:59:40;7.30;;;4.57;;
10467;SDS011;5281;48.878;9.394;2022-08-30T03:02:09;6.03;;;4.40;;
10467;SDS011;5281;48.878;9.394;2022-08-30T03:04:36;6.32;;;4.28;;
10467;SDS011;5281;48.878;9.394;2022-08-30T03:07:05;7.57;;;4.43;;
10467;SDS011;5281;48.878;9.394;2022-08-30T03:09:32;7.18;;;4.40;;
10467;SDS011;5281;48.878;9.394;2022-08-30T03:11:59;4.90;;;4.32;;
10467;SDS011;5281;48.878;9.394;2022-08-30T03:14:26;6.97;;;4.23;;
10467;SDS011;5281;48.878;9.394;2022-08-30T03:16:53;7.32;;;4.30;;
10467;SDS011;5281;48.878;9.394;2022-08-30T03:19:20;7.73;;;4.50;;
10467;SDS011;5281;48.878;9.394;2022-08-30T03:21:47;5.87;;;4.50;;
10467;SDS011;5281;48.878;9.394;2022-08-30T03:24:16;4.93;;;4.03;;
10467;SDS011;5281;48.878;9.394;2022-08-30T03:26:43;4.65;;;3.75;;
10467;SDS011;5281;48.878;9.394;2022-08-30T03:29:10;8.05;;;4.90;;
10467;SDS011;5281;48.878;9.394;2022-08-30T03:31:36;8.05;;;4.30;;
10467;SDS011;5281;48.878;9.394;2022-08-30T03:34:03;5.30;;;4.30;;
10467;SDS011;5281;48.878;9.394;2022-08-30T03:36:30;4.93;;;4.20;;
10467;SDS011;5281;48.878;9.394;2022-08-30T03:38:57;5.50;;;4.10;;
10467;SDS011;5281;48.878;9.394;2022-08-30T03:41:25;7.80;;;4.20;;
10467;SDS011;5281;48.878;9.394;2022-08-30T03:43:52;7.70;;;3.95;;
10467;SDS011;5281;48.878;9.394;2022-08-30T03:46:19;6.70;;;4.65;;
10467;SDS011;5281;48.878;9.394;2022-08-30T03:48:45;4.80;;;4.30;;
10467;SDS011;5281;48.878;9.394;2022-08-30T03:51:12;7.13;;;4.60;;
10467;SDS011;5281;48.878;9.394;2022-08-30T03:53:39;6.68;;;4.28;;
10467;SDS011;5281;48.878;9.394;2022-08-30T03:56:05;6.82;;;4.63;;
10467;SDS011;5281;48.878;9.394;2022-08-30T03:58:34;5.88;;;4.32;;
10467;SDS011;5281;48.878;9.394;2022-08-30T04:01:00;5.07;;;4.25;;
10467;SDS011;5281;48.878;9.394;2022-08-30T04:03:27;4.78;;;4.25;;
10467;SDS011;5281;48.878;9.394;2022-08-30T04:05:54;6.13;;;4.43;;
10467;SDS011;5281;48.878;9.394;2022-08-30T04:08:21;5.72;;;4.50;;
10467;SDS011;5281;48.878;9.394;2022-08-30T04:10:48;9.43;;;4.67;;
10467;SDS011;5281;48.878;9.394;2022-08-30T04:13:17;5.57;;;4.32;;
10467;SDS011;5281;48.878;9.394;2022-08-30T04:15:45;6.03;;;4.38;;
10467;SDS011;5281;48.878;9.394;2022-08-30T04:18:12;6.10;;;4.30;;
10467;SDS011;5281;48.878;9.394;2022-08-30T04:20:39;6.93;;;4.37;;
10467;SDS011;5281;48.878;9.394;2022-08-30T04:23:07;6.63;;;4.47;;
10467;SDS011;5281;48.878;9.394;2022-08-30T04:25:34;6.80;;;4.50;;
10467;SDS011;5281;48.878;9.394;2022-08-30T04:28:02;8.10;;;4.80;;
10467;SDS011;5281;48.878;9.394;2022-08-30T04:30:30;5.20;;;4.00;;
10467;SDS011;5281;48.878;9.394;2022-08-30T04:32:59;6.25;;;4.18;;
10467;SDS011;5281;48.878;9.394;2022-08-30T04:35:25;9.13;;;4.60;;
10467;SDS011;5281;48.878;9.394;2022-08-30T04:37:52;7.67;;;4.53;;
10467;SDS011;5281;48.878;9.394;2022-08-30T04:40:19;8.83;;;5.00;;
10467;SDS011;5281;48.878;9.394;2022-08-30T04:42:47;8.75;;;4.90;;
10467;SDS011;5281;48.878;9.394;2022-08-30T04:45:18;9.80;;;5.70;;
10467;SDS011;5281;48.878;9.394;2022-08-30T04:47:46;10.65;;;5.75;;
10467;SDS011;5281;48.878;9.394;2022-08-30T04:50:15;10.73;;;5.90;;
10467;SDS011;5281;48.878;9.394;2022-08-30T04:52:44;5.85;;;4.80;;
10467;SDS011;5281;48.878;9.394;2022-08-30T04:55:12;5.78;;;4.80;;
10467;SDS011;5281;48.878;9.394;2022-08-30T04:57:39;7.38;;;5.15;;
10467;SDS011;5281;48.878;9.394;2022-08-30T05:00:08;6.82;;;4.85;;
10467;SDS011;5281;48.878;9.394;2022-08-30T05:02:36;5.25;;;4.55;;
10467;SDS011;5281;48.878;9.394;2022-08-30T05:05:04;6.75;;;4.78;;
10467;SDS011;5281;48.878;9.394;2022-08-30T05:07:50;6.68;;;4.50;;
10467;SDS011;5281;48.878;9.394;2022-08-30T05:10:17;5.40;;;4.50;;
10467;SDS011;5281;48.878;9.394;2022-08-30T05:12:44;10.25;;;4.55;;
10467;SDS011;5281;48.878;9.394;2022-08-30T05:15:11;6.75;;;4.93;;
10467;SDS011;5281;48.878;9.394;2022-08-30T05:17:38;7.60;;;4.68;;
10467;SDS011;5281;48.878;9.394;2022-08-30T05:20:06;7.10;;;5.03;;
10467;SDS011;5281;48.878;9.394;2022-08-30T05:22:34;6.35;;;4.57;;
10467;SDS011;5281;48.878;9.394;2022-08-30T05:25:03;10.77;;;5.10;;
10467;SDS011;5281;48.878;9.394;2022-08-30T05:27:30;5.55;;;4.60;;
10467;SDS011;5281;48.878;9.394;2022-08-30T05:29:57;6.15;;;5.10;;
10467;SDS011;5281;48.878;9.394;2022-08-30T05:32:24;9.35;;;4.47;;
10467;SDS011;5281;48.878;9.394;2022-08-30T05:34:51;7.38;;;5.28;;
10467;SDS011;5281;48.878;9.394;2022-08-30T05:37:17;7.95;;;4.90;;
10467;SDS011;5281;48.878;9.394;2022-08-30T05:39:44;8.65;;;5.07;;
10467;SDS011;5281;48.878;9.394;2022-08-30T05:42:12;6.93;;;4.78;;
10467;SDS011;5281;48.878;9.394;2022-08-30T05:44:39;9.15;;;5.45;;
10467;SDS011;5281;48.878;9.394;2022-08-30T05:47:05;5.35;;;4.18;;
10467;SDS011;5281;48.878;9.394;2022-08-30T05:49:32;8.43;;;4.65;;
10467;SDS011;5281;48.878;9.394;2022-08-30T05:51:59;6.40;;;4.43;;
10467;SDS011;5281;48.878;9.394;2022-08-30T05:54:26;6.28;;;4.63;;
10467;SDS011;5281;48.878;9.394;2022-08-30T05:56:53;7.47;;;4.22;;
10467;SDS011;5281;48.878;9.394;2022-08-30T05:59:21;7.25;;;4.30;;
10467;SDS011;5281;48.878;9.394;2022-08-30T06:01:47;7.80;;;4.38;;
10467;SDS011;5281;48.878;9.394;2022-08-30T06:04:14;7.95;;;4.85;;
10467;SDS011;5281;48.878;9.394;2022-08-30T06:06:42;7.82;;;5.05;;
10467;SDS011;5281;48.878;9.394;2022-08-30T06:09:10;8.45;;;4.30;;
10467;SDS011;5281;48.878;9.394;2022-08-30T06:11:38;7.30;;;3.78;;
10467;SDS011;5281;48.878;9.394;2022-08-30T06:14:05;7.47;;;4.40;;
10467;SDS011;5281;48.878;9.394;2022-08-30T06:16:34;6.78;;;4.13;;
10467;SDS011;5281;48.878;9.394;2022-08-30T06:19:04;8.98;;;4.40;;
10467;SDS011;5281;48.878;9.394;2022-08-30T06:21:35;6.10;;;3.90;;
10467;SDS011;5281;48.878;9.394;2022-08-30T06:24:02;6.15;;;3.92;;
10467;SDS011;5281;48.878;9.394;2022-08-30T06:26:30;4.72;;;3.30;;
10467;SDS011;5281;48.878;9.394;2022-08-30T06:29:01;5.28;;;3.22;;
10467;SDS011;5281;48.878;9.394;2022-08-30T06:31:28;4.80;;;3.35;;
10467;SDS011;5281;48.878;9.394;2022-08-30T06:33:56;6.82;;;3.30;;
10467;SDS011;5281;48.878;9.394;2022-08-30T06:36:23;6.25;;;3.50;;
10467;SDS011;5281;48.878;9.394;2022-08-30T06:38:52;4.75;;;3.10;;
10467;SDS011;5281;48.878;9.394;2022-08-30T06:41:22;5.63;;;2.90;;
10467;SDS011;5281;48.878;9.394;2022-08-30T06:43:50;5.88;;;3.38;;
10467;SDS011;5281;48.878;9.394;2022-08-30T06:46:19;4.18;;;3.40;;
10467;SDS011;5281;48.878;9.394;2022-08-30T06:48:47;4.70;;;3.22;;
10467;SDS011;5281;48.878;9.394;2022-08-30T06:51:18;5.45;;;3.05;;
10467;SDS011;5281;48.878;9.394;2022-08-30T06:53:45;5.20;;;3.78;;
10467;SDS011;5281;48.878;9.394;2022-08-30T06:56:12;4.30;;;3.03;;
10467;SDS011;5281;48.878;9.394;2022-08-30T06:58:39;3.78;;;3.00;;
10467;SDS011;5281;48.878;9.394;2022-08-30T07:01:06;4.22;;;3.30;;
10467;SDS011;5281;48.878;9.394;2022-08-30T07:03:36;3.95;;;3.05;;
10467;SDS011;5281;48.878;9.394;2022-08-30T07:06:03;8.05;;;3.13;;
10467;SDS011;5281;48.878;9.394;2022-08-30T07:08:32;4.97;;;3.00;;
10467;SDS011;5281;48.878;9.394;2022-08-30T07:10:58;4.47;;;3.33;;
10467;SDS011;5281;48.878;9.394;2022-08-30T07:13:26;5.18;;;2.92;;
10467;SDS011;5281;48.878;9.394;2022-08-30T07:15:53;3.35;;;2.97;;
10467;SDS011;5281;48.878;9.394;2022-08-30T07:18:20;4.05;;;3.03;;
10467;SDS011;5281;48.878;9.394;2022-08-30T07:21:05;5.28;;;3.17;;
10467;SDS011;5281;48.878;9.394;2022-08-30T07:23:35;3.30;;;2.67;;
10467;SDS011;5281;48.878;9.394;2022-08-30T07:26:03;5.38;;;3.25;;
10467;SDS011;5281;48.878;9.394;2022-08-30T07:28:31;4.97;;;3.00;;
10467;SDS011;5281;48.878;9.394;2022-08-30T07:30:58;4.88;;;3.28;;
10467;SDS011;5281;48.878;9.394;2022-08-30T07:33:26;4.20;;;3.13;;
10467;SDS011;5281;48.878;9.394;2022-08-30T07:35:52;4.75;;;3.28;;
10467;SDS011;5281;48.878;9.394;2022-08-30T07:38:19;4.40;;;3.15;;
10467;SDS011;5281;48.878;9.394;2022-08-30T07:40:47;5.30;;;3.65;;
10467;SDS011;5281;48.878;9.394;2022-08-30T07:43:14;6.10;;;3.55;;
10467;SDS011;5281;48.878;9.394;2022-08-30T07:45:41;4.38;;;3.03;;
10467;SDS011;5281;48.878;9.394;2022-08-30T07:48:07;7.18;;;3.35;;
10467;SDS011;5281;48.878;9.394;2022-08-30T07:50:35;7.78;;;3.35;;
10467;SDS011;5281;48.878;9.394;2022-08-30T07:53:02;4.43;;;3.45;;
10467;SDS011;5281;48.878;9.394;2022-08-30T07:55:29;4.95;;;3.13;;
10467;SDS011;5281;48.878;9.394;2022-08-30T07:57:57;5.60;;;3.38;;
10467;SDS011;5281;48.878;9.394;2022-08-30T08:00:24;4.47;;;3.22;;
10467;SDS011;5281;48.878;9.394;2022-08-30T08:02:52;4.65;;;3.20;;
10467;SDS011;5281;48.878;9.394;2022-08-30T08:05:19;6.82;;;3.50;;
10467;SDS011;5281;48.878;9.394;2022-08-30T08:07:45;6.35;;;3.30;;
10467;SDS011;5281;48.878;9.394;2022-08-30T08:10:12;4.32;;;3.13;;
10467;SDS011;5281;48.878;9.394;2022-08-30T08:12:40;3.83;;;3.47;;
10467;SDS011;5281;48.878;9.394;2022-08-30T08:15:08;3.50;;;3.05;;
10467;SDS011;5281;48.878;9.394;2022-08-30T08:17:36;5.88;;;3.50;;
10467;SDS011;5281;48.878;9.394;2022-08-30T08:20:03;3.88;;;3.45;;
10467;SDS011;5281;48.878;9.394;2022-08-30T08:22:30;4.72;;;3.42;;
10467;SDS011;5281;48.878;9.394;2022-08-30T08:24:57;6.03;;;3.50;;
10467;SDS011;5281;48.878;9.394;2022-08-30T08:27:23;5.38;;;3.63;;
10467;SDS011;5281;48.878;9.394;2022-08-30T08:29:50;4.28;;;3.15;;
10467;SDS011;5281;48.878;9.394;2022-08-30T08:32:18;5.43;;;3.30;;
10467;SDS011;5281;48.878;9.394;2022-08-30T08:34:45;6.10;;;3.80;;
10467;SDS011;5281;48.878;9.394;2022-08-30T08:37:11;4.03;;;3.40;;
10467;SDS011;5281;48.878;9.394;2022-08-30T08:39:38;6.03;;;3.60;;
10467;SDS011;5281;48.878;9.394;2022-08-30T08:42:07;4.85;;;3.58;;
10467;SDS011;5281;48.878;9.394;2022-08-30T08:44:44;4.88;;;3.58;;
10467;SDS011;5281;48.878;9.394;2022-08-30T08:47:21;3.47;;;3.17;;
10467;SDS011;5281;48.878;9.394;2022-08-30T08:49:54;4.50;;;3.63;;
10467;SDS011;5281;48.878;9.394;2022-08-30T08:52:26;4.05;;;3.60;;
10467;SDS011;5281;48.878;9.394;2022-08-30T08:55:13;4.38;;;3.65;;
10467;SDS011;5281;48.878;9.394;2022-08-30T08:57:43;4.80;;;3.90;;
10467;SDS011;5281;48.878;9.394;2022-08-30T09:00:11;5.32;;;3.92;;
10467;SDS011;5281;48.878;9.394;2022-08-30T09:02:41;5.60;;;3.97;;
10467;SDS011;5281;48.878;9.394;2022-08-30T09:05:10;6.00;;;4.00;;
10467;SDS011;5281;48.878;9.394;2022-08-30T09:07:42;5.50;;;4.00;;
10467;SDS011;5281;48.878;9.394;2022-08-30T09:10:14;6.03;;;3.90;;
10467;SDS011;5281;48.878;9.394;2022-08-30T09:12:41;6.13;;;3.97;;
10467;SDS011;5281;48.878;9.394;2022-08-30T09:15:11;5.85;;;3.63;;
10467;SDS011;5281;48.878;9.394;2022-08-30T09:17:54;4.80;;;3.72;;
10467;SDS011;5281;48.878;9.394;2022-08-30T09:20:23;6.53;;;3.90;;
10467;SDS011;5281;48.878;9.394;2022-08-30T09:22:52;5.93;;;3.70;;
10467;SDS011;5281;48.878;9.394;2022-08-30T09:25:20;5.43;;;3.67;;
10467;SDS011;5281;48.878;9.394;2022-08-30T09:27:49;4.07;;;3.67;;
10467;SDS011;5281;48.878;9.394;2022-08-30T09:30:18;4.18;;;3.50;;
10467;SDS011;5281;48.878;9.394;2022-08-30T09:32:51;3.95;;;3.42;;
10467;SDS011;5281;48.878;9.394;2022-08-30T09:35:21;4.45;;;3.13;;
10467;SDS011;5281;48.878;9.394;2022-08-30T09:37:51;4.13;;;3.60;;
10467;SDS011;5281;48.878;9.394;2022-08-30T09:40:22;6.80;;;3.40;;
10467;SDS011;5281;48.878;9.394;2022-08-30T09:43:06;5.63;;;4.13;;
10467;SDS011;5281;48.878;9.394;2022-08-30T09:45:35;5.45;;;3.63;;
10467;SDS011;5281;48.878;9.394;2022-08-30T09:48:23;4.97;;;3.55;;
10467;SDS011;5281;48.878;9.394;2022-08-30T09:50:57;5.07;;;3.50;;
10467;SDS011;5281;48.878;9.394;2022-08-30T09:53:47;5.57;;;3.70;;
10467;SDS011;5281;48.878;9.394;2022-08-30T09:56:22;5.63;;;4.15;;
10467;SDS011;5281;48.878;9.394;2022-08-30T09:58:59;4.72;;;3.70;;
10467;SDS011;5281;48.878;9.394;2022-08-30T10:01:34;4.75;;;3.42;;
10467;SDS011;5281;48.878;9.394;2022-08-30T10:04:07;5.32;;;3.83;;
10467;SDS011;5281;48.878;9.394;2022-08-30T10:06:41;4.40;;;3.63;;
10467;SDS011;5281;48.878;9.394;2022-08-30T10:09:17;7.30;;;3.60;;
10467;SDS011;5281;48.878;9.394;2022-08-30T10:11:51;6.40;;;3.78;;
10467;SDS011;5281;48.878;9.394;2022-08-30T10:14:26;5.32;;;3.60;;
10467;SDS011;5281;48.878;9.394;2022-08-30T10:17:15;5.45;;;3.40;;
10467;SDS011;5281;48.878;9.394;2022-08-30T10:19:59;3.65;;;3.22;;
10467;SDS011;5281;48.878;9.394;2022-08-30T10:22:33;4.22;;;3.33;;
10467;SDS011;5281;48.878;9.394;2022-08-30T10:25:06;5.72;;;3.42;;
10467;SDS011;5281;48.878;9.394;2022-08-30T10:27:37;6.05;;;3.60;;
10467;SDS011;5281;48.878;9.394;2022-08-30T10:30:09;5.32;;;3.58;;
10467;SDS011;5281;48.878;9.394;2022-08-30T10:32:41;5.65;;;3.58;;
10467;SDS011;5281;48.878;9.394;2022-08-30T10:35:14;5.65;;;3.50;;
10467;SDS011;5281;48.878;9.394;2022-08-30T10:37:43;3.72;;;3.42;;
10467;SDS011;5281;48.878;9.394;2022-08-30T10:40:14;4.32;;;3.50;;
10467;SDS011;5281;48.878;9.394;2022-08-30T10:43:04;4.70;;;3.17;;
10467;SDS011;5281;48.878;9.394;2022-08-30T10:45:36;7.60;;;3.45;;
10467;SDS011;5281;48.878;9.394;2022-08-30T10:48:10;6.65;;;3.50;;
10467;SDS011;5281;48.878;9.394;2022-08-30T10:50:45;4.28;;;3.20;;
10467;SDS011;5281;48.878;9.394;2022-08-30T10:53:15;3.95;;;3.42;;
10467;SDS011;5281;48.878;9.394;2022-08-30T10:55:48;5.97;;;3.33;;
10467;SDS011;5281;48.878;9.394;2022-08-30T10:58:17;3.50;;;3.20;;
10467;SDS011;5281;48.878;9.394;2022-08-30T11:00:52;3.95;;;3.30;;
10467;SDS011;5281;48.878;9.394;2022-08-30T11:03:41;4.05;;;3.40;;
10467;SDS011;5281;48.878;9.394;2022-08-30T11:06:32;5.90;;;3.47;;
10467;SDS011;5281;48.878;9.394;2022-08-30T11:09:10;4.85;;;3.47;;
10467;SDS011;5281;48.878;9.394;2022-08-30T11:11:55;5.97;;;3.55;;
10467;SDS011;5281;48.878;9.394;2022-08-30T11:14:38;4.65;;;3.35;;
10467;SDS011;5281;48.878;9.394;2022-08-30T11:17:06;4.05;;;3.35;;
10467;SDS011;5281;48.878;9.394;2022-08-30T11:19:49;5.85;;;3.38;;
10467;SDS011;5281;48.878;9.394;2022-08-30T11:22:22;4.97;;;3.60;;
10467;SDS011;5281;48.878;9.394;2022-08-30T11:24:58;3.53;;;3.22;;
10467;SDS011;5281;48.878;9.394;2022-08-30T11:33:26;3.72;;;2.95;;
10467;SDS011;5281;48.878;9.394;2022-08-30T11:35:55;4.70;;;3.20;;
10467;SDS011;5281;48.878;9.394;2022-08-30T11:41:30;3.28;;;2.97;;
10467;SDS011;5281;48.878;9.394;2022-08-30T11:44:12;4.57;;;3.60;;
10467;SDS011;5281;48.878;9.394;2022-08-30T11:46:52;3.95;;;3.50;;
10467;SDS011;5281;48.878;9.394;2022-08-30T11:49:28;5.95;;;4.25;;
10467;SDS011;5281;48.878;9.394;2022-08-30T11:52:16;3.47;;;3.17;;
10467;SDS011;5281;48.878;9.394;2022-08-30T11:55:05;3.90;;;3.13;;
10467;SDS011;5281;48.878;9.394;2022-08-30T11:58:08;4.35;;;3.10;;
10467;SDS011;5281;48.878;9.394;2022-08-30T12:00:44;4.63;;;3.20;;
10467;SDS011;5281;48.878;9.394;2022-08-30T12:03:26;5.60;;;3.60;;
10467;SDS011;5281;48.878;9.394;2022-08-30T12:05:56;5.50;;;3.35;;
10467;SDS011;5281;48.878;9.394;2022-08-30T12:18:14;3.72;;;3.40;;
10467;SDS011;5281;48.878;9.394;2022-08-30T12:21:02;4.00;;;3.47;;
10467;SDS011;5281;48.878;9.394;2022-08-30T12:23:36;3.85;;;3.03;;
10467;SDS011;5281;48.878;9.394;2022-08-30T12:26:14;8.25;;;3.50;;
10467;SDS011;5281;48.878;9.394;2022-08-30T12:29:05;3.95;;;3.30;;
10467;SDS011;5281;48.878;9.394;2022-08-30T12:31:37;4.72;;;3.42;;
10467;SDS011;5281;48.878;9.394;2022-08-30T12:34:07;5.82;;;3.50;;
10467;SDS011;5281;48.878;9.394;2022-08-30T12:36:47;4.82;;;3.28;;
10467;SDS011;5281;48.878;9.394;2022-08-30T12:39:17;4.25;;;3.88;;
10467;SDS011;5281;48.878;9.394;2022-08-30T12:41:45;5.25;;;2.95;;
10467;SDS011;5281;48.878;9.394;2022-08-30T12:44:13;3.85;;;3.13;;
10467;SDS011;5281;48.878;9.394;2022-08-30T12:46:42;4.25;;;3.85;;
10467;SDS011;5281;48.878;9.394;2022-08-30T12:49:13;4.75;;;3.63;;
10467;SDS011;5281;48.878;9.394;2022-08-30T12:51:42;4.55;;;3.42;;
10467;SDS011;5281;48.878;9.394;2022-08-30T12:54:14;6.28;;;3.60;;
10467;SDS011;5281;48.878;9.394;2022-08-30T12:56:44;5.35;;;3.60;;
10467;SDS011;5281;48.878;9.394;2022-08-30T13:02:07;3.70;;;3.40;;
10467;SDS011;5281;48.878;9.394;2022-08-30T13:04:39;5.07;;;3.33;;
10467;SDS011;5281;48.878;9.394;2022-08-30T13:07:06;4.45;;;3.30;;
10467;SDS011;5281;48.878;9.394;2022-08-30T13:09:33;5.75;;;3.60;;
10467;SDS011;5281;48.878;9.394;2022-08-30T13:12:02;3.75;;;3.10;;
10467;SDS011;5281;48.878;9.394;2022-08-30T13:14:33;4.38;;;3.40;;
10467;SDS011;5281;48.878;9.394;2022-08-30T13:17:09;5.38;;;3.22;;
10467;SDS011;5281;48.878;9.394;2022-08-30T13:19:56;3.58;;;3.20;;
10467;SDS011;5281;48.878;9.394;2022-08-30T13:22:26;4.28;;;3.13;;
10467;SDS011;5281;48.878;9.394;2022-08-30T13:24:55;4.75;;;3.05;;
10467;SDS011;5281;48.878;9.394;2022-08-30T13:27:22;4.50;;;3.58;;
10467;SDS011;5281;48.878;9.394;2022-08-30T13:29:50;4.20;;;3.60;;
10467;SDS011;5281;48.878;9.394;2022-08-30T13:32:16;3.60;;;3.20;;
10467;SDS011;5281;48.878;9.394;2022-08-30T13:34:43;4.03;;;3.10;;
10467;SDS011;5281;48.878;9.394;2022-08-30T13:37:14;4.65;;;3.33;;
10467;SDS011;5281;48.878;9.394;2022-08-30T13:39:43;4.30;;;3.20;;
10467;SDS011;5281;48.878;9.394;2022-08-30T13:42:09;3.88;;;3.47;;
10467;SDS011;5281;48.878;9.394;2022-08-30T13:44:36;4.10;;;2.97;;
10467;SDS011;5281;48.878;9.394;2022-08-30T13:47:03;4.03;;;3.22;;
10467;SDS011;5281;48.878;9.394;2022-08-30T13:49:32;4.25;;;3.38;;
10467;SDS011;5281;48.878;9.394;2022-08-30T13:52:00;4.70;;;4.00;;
10467;SDS011;5281;48.878;9.394;2022-08-30T13:54:28;4.72;;;3.15;;
10467;SDS011;5281;48.878;9.394;2022-08-30T13:56:55;6.28;;;3.40;;
10467;SDS011;5281;48.878;9.394;2022-08-30T13:59:22;3.38;;;2.80;;
10467;SDS011;5281;48.878;9.394;2022-08-30T14:01:50;3.47;;;3.17;;
10467;SDS011;5281;48.878;9.394;2022-08-30T14:04:18;4.28;;;2.97;;
10467;SDS011;5281;48.878;9.394;2022-08-30T14:06:45;5.10;;;3.22;;
10467;SDS011;5281;48.878;9.394;2022-08-30T14:09:12;4.85;;;3.30;;
10467;SDS011;5281;48.878;9.394;2022-08-30T14:11:40;4.53;;;3.60;;
10467;SDS011;5281;48.878;9.394;2022-08-30T14:14:07;3.25;;;2.88;;
10467;SDS011;5281;48.878;9.394;2022-08-30T14:16:35;4.13;;;3.30;;
10467;SDS011;5281;48.878;9.394;2022-08-30T14:19:04;6.07;;;3.47;;
10467;SDS011;5281;48.878;9.394;2022-08-30T14:21:31;6.20;;;3.72;;
10467;SDS011;5281;48.878;9.394;2022-08-30T14:23:58;4.47;;;3.30;;
10467;SDS011;5281;48.878;9.394;2022-08-30T14:26:26;7.18;;;3.33;;
10467;SDS011;5281;48.878;9.394;2022-08-30T14:28:56;6.35;;;3.72;;
10467;SDS011;5281;48.878;9.394;2022-08-30T14:31:22;5.13;;;3.47;;
10467;SDS011;5281;48.878;9.394;2022-08-30T14:33:49;5.10;;;3.60;;
10467;SDS011;5281;48.878;9.394;2022-08-30T14:36:16;3.45;;;3.15;;
10467;SDS011;5281;48.878;9.394;2022-08-30T14:38:43;4.90;;;3.58;;
10467;SDS011;5281;48.878;9.394;2022-08-30T14:41:10;3.85;;;3.55;;
10467;SDS011;5281;48.878;9.394;2022-08-30T14:43:37;5.38;;;3.08;;
10467;SDS011;5281;48.878;9.394;2022-08-30T14:46:07;4.72;;;3.45;;
10467;SDS011;5281;48.878;9.394;2022-08-30T14:48:34;5.28;;;3.47;;
10467;SDS011;5281;48.878;9.394;2022-08-30T14:51:01;4.78;;;3.70;;
10467;SDS011;5281;48.878;9.394;2022-08-30T14:53:28;4.07;;;3.10;;
10467;SDS011;5281;48.878;9.394;2022-08-30T14:55:54;5.07;;;3.53;;
10467;SDS011;5281;48.878;9.394;2022-08-30T14:58:21;4.57;;;3.60;;
10467;SDS011;5281;48.878;9.394;2022-08-30T15:00:48;4.35;;;3.50;;
10467;SDS011;5281;48.878;9.394;2022-08-30T15:03:17;4.60;;;3.42;;
10467;SDS011;5281;48.878;9.394;2022-08-30T15:05:47;4.82;;;3.70;;
10467;SDS011;5281;48.878;9.394;2022-08-30T15:08:15;4.85;;;3.20;;
10467;SDS011;5281;48.878;9.394;2022-08-30T15:10:42;3.60;;;3.22;;
10467;SDS011;5281;48.878;9.394;2022-08-30T15:13:09;4.95;;;4.30;;
10467;SDS011;5281;48.878;9.394;2022-08-30T15:15:36;5.70;;;3.53;;
10467;SDS011;5281;48.878;9.394;2022-08-30T15:18:03;4.82;;;3.70;;
10467;SDS011;5281;48.878;9.394;2022-08-30T15:20:31;5.05;;;3.42;;
10467;SDS011;5281;48.878;9.394;2022-08-30T15:22:58;5.57;;;3.40;;
10467;SDS011;5281;48.878;9.394;2022-08-30T15:25:25;4.10;;;3.58;;
10467;SDS011;5281;48.878;9.394;2022-08-30T15:27:51;4.50;;;3.38;;
10467;SDS011;5281;48.878;9.394;2022-08-30T15:30:18;4.15;;;3.53;;
10467;SDS011;5281;48.878;9.394;2022-08-30T15:32:45;4.25;;;3.35;;
10467;SDS011;5281;48.878;9.394;2022-08-30T15:35:12;4.28;;;3.58;;
10467;SDS011;5281;48.878;9.394;2022-08-30T15:37:40;4.00;;;3.05;;